sensor_id;sensor_type;location;lat;lon;timestamp;temperature;humidity
9939;DHT22;5008;50.656;7.188;2024-02-14T05:02:37;9.60;99.90
9939;DHT22;5008;50.656;7.188;2024-02-14T05:05:04;9.70;99.90
9939;DHT22;5008;50.656;7.188;2024-02-14T05:07:31;9.70;99.90
9939;DHT22;5008;50.656;7.188;2024-02-14T05:09:59;9.70;99.90
9939;DHT22;5008;50.656;7.188;2024-02-14T05:12:26;9.70;99.90
9939;DHT22;5008;50.656;7.188;2024-02-14T05:14:53;9.70;99.90
9939;DHT22;5008;50.656;7.188;2024-02-14T05:17:20;9.60;99.90
9939;DHT22;5008;50.656;7.188;2024-02-14T05:19:48;9.70;99.90
9939;DHT22;5008;50.656;7.188;2024-02-14T05:22:15;9.70;99.90
9939;DHT22;5008;50.656;7.188;2024-02-14T05:24:41;9.70;99.90
9939;DHT22;5008;50.656;7.188;2024-02-14T05:27:08;9.70;99.90
9939;DHT22;5008;50.656;7.188;2024-02-14T05:29:35;9.70;99.90
9939;DHT22;5008;50.656;7.188;2024-02-14T05:32:02;9.60;99.90
9939;DHT22;5008;50.656;7.188;2024-02-14T05:34:28;9.60;99.90
9939;DHT22;5008;50.656;7.188;2024-02-14T05:36:57;9.70;99.90
9939;DHT22;5008;50.656;7.188;2024-02-14T05:39:23;9.60;99.90
9939;DHT22;5008;50.656;7.188;2024-02-14T05:41:51;9.60;99.90
9939;DHT22;5008;50.656;7.188;2024-02-14T05:44:20;9.60;99.90
9939;DHT22;5008;50.656;7.188;2024-02-14T05:46:48;9.60;99.90
9939;DHT22;5008;50.656;7.188;2024-02-14T05:49:14;9.60;99.90
9939;DHT22;5008;50.656;7.188;2024-02-14T05:51:41;9.60;99.90
9939;DHT22;5008;50.656;7.188;2024-02-14T05:54:09;9.60;99.90
9939;DHT22;5008;50.656;7.188;2024-02-14T05:56:36;9.60;99.90
9939;DHT22;5008;50.656;7.188;2024-02-14T05:59:03;9.60;99.90
9939;DHT22;5008;50.656;7.188;2024-02-14T06:01:30;9.70;99.90
9939;DHT22;5008;50.656;7.188;2024-02-14T06:03:57;9.70;99.90
9939;DHT22;5008;50.656;7.188;2024-02-14T06:06:23;9.80;99.90
9939;DHT22;5008;50.656;7.188;2024-02-14T06:08:50;9.80;99.90
9939;DHT22;5008;50.656;7.188;2024-02-14T06:11:18;9.80;99.90
9939;DHT22;5008;50.656;7.188;2024-02-14T06:13:46;9.80;99.90
9939;DHT22;5008;50.656;7.188;2024-02-14T06:16:13;9.80;99.90
9939;DHT22;5008;50.656;7.188;2024-02-14T06:18:40;9.80;99.90
9939;DHT22;5008;50.656;7.188;2024-02-14T06:21:07;9.80;99.90
9939;DHT22;5008;50.656;7.188;2024-02-14T06:23:34;9.80;99.90
9939;DHT22;5008;50.656;7.188;2024-02-14T06:26:02;9.70;99.90
9939;DHT22;5008;50.656;7.188;2024-02-14T06:28:31;9.80;99.90
9939;DHT22;5008;50.656;7.188;2024-02-14T06:30:58;9.80;99.90
9939;DHT22;5008;50.656;7.188;2024-02-14T06:33:26;9.80;99.90
9939;DHT22;5008;50.656;7.188;2024-02-14T06:35:52;9.80;99.90
9939;DHT22;5008;50.656;7.188;2024-02-14T06:38:19;9.90;99.90
9939;DHT22;5008;50.656;7.188;2024-02-14T06:40:46;9.80;99.90
9939;DHT22;5008;50.656;7.188;2024-02-14T06:43:13;9.80;99.90
9939;DHT22;5008;50.656;7.188;2024-02-14T06:45:41;9.80;99.90
9939;DHT22;5008;50.656;7.188;2024-02-14T06:48:09;9.80;99.90
9939;DHT22;5008;50.656;7.188;2024-02-14T06:50:38;9.70;99.90
9939;DHT22;5008;50.656;7.188;2024-02-14T06:53:05;9.70;99.90
9939;DHT22;5008;50.656;7.188;2024-02-14T06:55:32;9.70;99.90
9939;DHT22;5008;50.656;7.188;2024-02-14T06:57:59;9.70;99.90
9939;DHT22;5008;50.656;7.188;2024-02-14T07:00:26;9.70;99.90
9939;DHT22;5008;50.656;7.188;2024-02-14T07:02:55;9.80;99.90
9939;DHT22;5008;50.656;7.188;2024-02-14T07:05:22;9.80;99.90
9939;DHT22;5008;50.656;7.188;2024-02-14T07:07:49;9.80;99.90
9939;DHT22;5008;50.656;7.188;2024-02-14T07:10:16;9.80;99.90
9939;DHT22;5008;50.656;7.188;2024-02-14T07:12:43;9.90;99.90
9939;DHT22;5008;50.656;7.188;2024-02-14T07:15:10;9.90;99.90
9939;DHT22;5008;50.656;7.188;2024-02-14T07:17:36;9.90;99.90
9939;DHT22;5008;50.656;7.188;2024-02-14T07:20:06;10.00;99.90
9939;DHT22;5008;50.656;7.188;2024-02-14T07:22:34;10.00;99.90
9939;DHT22;5008;50.656;7.188;2024-02-14T07:25:01;10.10;99.90
9939;DHT22;5008;50.656;7.188;2024-02-14T07:27:28;10.10;99.90
9939;DHT22;5008;50.656;7.188;2024-02-14T07:29:54;10.10;99.90
9939;DHT22;5008;50.656;7.188;2024-02-14T07:32:21;10.10;99.90
9939;DHT22;5008;50.656;7.188;2024-02-14T07:34:48;10.20;99.90
9939;DHT22;5008;50.656;7.188;2024-02-14T07:37:16;10.10;99.90
9939;DHT22;5008;50.656;7.188;2024-02-14T07:39:45;10.20;99.90
9939;DHT22;5008;50.656;7.188;2024-02-14T07:42:12;10.20;99.90
9939;DHT22;5008;50.656;7.188;2024-02-14T07:44:39;10.20;99.90
9939;DHT22;5008;50.656;7.188;2024-02-14T07:47:05;10.20;99.90
9939;DHT22;5008;50.656;7.188;2024-02-14T07:49:32;10.30;99.90
9939;DHT22;5008;50.656;7.188;2024-02-14T07:51:59;10.30;99.90
9939;DHT22;5008;50.656;7.188;2024-02-14T07:54:28;10.30;99.90
9939;DHT22;5008;50.656;7.188;2024-02-14T07:56:55;10.30;99.90
9939;DHT22;5008;50.656;7.188;2024-02-14T07:59:21;10.50;99.90
9939;DHT22;5008;50.656;7.188;2024-02-14T08:01:48;10.60;99.90
9939;DHT22;5008;50.656;7.188;2024-02-14T08:04:15;10.50;99.90
9939;DHT22;5008;50.656;7.188;2024-02-14T08:06:42;10.60;99.90
9939;DHT22;5008;50.656;7.188;2024-02-14T08:09:11;10.60;99.90
9939;DHT22;5008;50.656;7.188;2024-02-14T08:11:39;10.70;99.90
9939;DHT22;5008;50.656;7.188;2024-02-14T08:14:05;10.80;99.90
9939;DHT22;5008;50.656;7.188;2024-02-14T08:16:32;10.90;99.90
9939;DHT22;5008;50.656;7.188;2024-02-14T08:18:59;11.00;99.90
9939;DHT22;5008;50.656;7.188;2024-02-14T08:21:26;11.00;99.90
9939;DHT22;5008;50.656;7.188;2024-02-14T08:23:53;11.00;99.90
9939;DHT22;5008;50.656;7.188;2024-02-14T08:26:20;11.00;99.90
9939;DHT22;5008;50.656;7.188;2024-02-14T08:28:49;11.10;99.90
9939;DHT22;5008;50.656;7.188;2024-02-14T08:31:17;11.20;99.90
9939;DHT22;5008;50.656;7.188;2024-02-14T08:33:43;11.20;99.90
9939;DHT22;5008;50.656;7.188;2024-02-14T08:36:10;11.20;99.90
9939;DHT22;5008;50.656;7.188;2024-02-14T08:38:37;11.10;99.90
9939;DHT22;5008;50.656;7.188;2024-02-14T08:41:04;11.10;99.90
9939;DHT22;5008;50.656;7.188;2024-02-14T08:43:31;11.20;99.90
9939;DHT22;5008;50.656;7.188;2024-02-14T08:46:00;11.20;99.90
9939;DHT22;5008;50.656;7.188;2024-02-14T08:48:28;11.30;99.90
9939;DHT22;5008;50.656;7.188;2024-02-14T08:50:58;11.30;99.90
9939;DHT22;5008;50.656;7.188;2024-02-14T08:53:25;11.30;99.90
9939;DHT22;5008;50.656;7.188;2024-02-14T08:55:52;11.40;99.90
9939;DHT22;5008;50.656;7.188;2024-02-14T08:58:19;11.40;99.90
9939;DHT22;5008;50.656;7.188;2024-02-14T09:00:48;11.50;99.90
9939;DHT22;5008;50.656;7.188;2024-02-14T09:03:16;11.50;99.90
9939;DHT22;5008;50.656;7.188;2024-02-14T09:05:43;11.60;99.90
9939;DHT22;5008;50.656;7.188;2024-02-14T09:08:11;11.60;99.90
9939;DHT22;5008;50.656;7.188;2024-02-14T09:10:38;11.70;99.90
9939;DHT22;5008;50.656;7.188;2024-02-14T09:13:05;11.80;99.90
9939;DHT22;5008;50.656;7.188;2024-02-14T09:15:33;11.80;99.90
9939;DHT22;5008;50.656;7.188;2024-02-14T09:18:00;11.80;99.90
9939;DHT22;5008;50.656;7.188;2024-02-14T09:20:29;11.80;99.90
9939;DHT22;5008;50.656;7.188;2024-02-14T09:22:56;11.90;99.90
9939;DHT22;5008;50.656;7.188;2024-02-14T09:25:24;11.90;99.90
9939;DHT22;5008;50.656;7.188;2024-02-14T09:27:51;12.00;99.90
9939;DHT22;5008;50.656;7.188;2024-02-14T09:30:18;12.10;99.90
9939;DHT22;5008;50.656;7.188;2024-02-14T09:32:45;12.20;99.90
9939;DHT22;5008;50.656;7.188;2024-02-14T09:35:13;12.20;99.90
9939;DHT22;5008;50.656;7.188;2024-02-14T09:37:41;12.30;99.90
9939;DHT22;5008;50.656;7.188;2024-02-14T09:40:09;12.40;99.90
9939;DHT22;5008;50.656;7.188;2024-02-14T09:42:43;12.50;99.90
9939;DHT22;5008;50.656;7.188;2024-02-14T09:45:11;12.60;99.90
9939;DHT22;5008;50.656;7.188;2024-02-14T09:47:40;12.60;99.90
9939;DHT22;5008;50.656;7.188;2024-02-14T09:50:08;12.60;99.90
9939;DHT22;5008;50.656;7.188;2024-02-14T09:52:36;12.60;99.90
9939;DHT22;5008;50.656;7.188;2024-02-14T09:55:07;12.70;99.90
9939;DHT22;5008;50.656;7.188;2024-02-14T09:57:36;12.70;99.90
9939;DHT22;5008;50.656;7.188;2024-02-14T10:00:06;12.70;99.90
9939;DHT22;5008;50.656;7.188;2024-02-14T10:02:35;12.80;99.90
9939;DHT22;5008;50.656;7.188;2024-02-14T10:05:02;12.70;99.90
9939;DHT22;5008;50.656;7.188;2024-02-14T10:07:29;12.80;99.90
9939;DHT22;5008;50.656;7.188;2024-02-14T10:10:07;12.90;99.90
9939;DHT22;5008;50.656;7.188;2024-02-14T10:12:34;12.80;99.90
9939;DHT22;5008;50.656;7.188;2024-02-14T10:15:00;12.90;99.90
9939;DHT22;5008;50.656;7.188;2024-02-14T10:17:27;13.00;99.90
9939;DHT22;5008;50.656;7.188;2024-02-14T10:19:55;12.90;99.90
9939;DHT22;5008;50.656;7.188;2024-02-14T10:22:22;13.00;99.90
9939;DHT22;5008;50.656;7.188;2024-02-14T10:24:50;13.10;99.90
9939;DHT22;5008;50.656;7.188;2024-02-14T10:27:18;13.00;99.90
9939;DHT22;5008;50.656;7.188;2024-02-14T10:29:47;12.90;99.90
9939;DHT22;5008;50.656;7.188;2024-02-14T10:32:15;13.00;99.90
9939;DHT22;5008;50.656;7.188;2024-02-14T10:34:43;13.10;99.90
9939;DHT22;5008;50.656;7.188;2024-02-14T10:37:14;13.10;99.90
9939;DHT22;5008;50.656;7.188;2024-02-14T10:39:42;13.00;99.90
9939;DHT22;5008;50.656;7.188;2024-02-14T10:42:09;13.10;99.90
9939;DHT22;5008;50.656;7.188;2024-02-14T10:44:37;13.00;99.90
9939;DHT22;5008;50.656;7.188;2024-02-14T10:47:06;13.10;99.90
9939;DHT22;5008;50.656;7.188;2024-02-14T10:49:37;13.10;99.90
9939;DHT22;5008;50.656;7.188;2024-02-14T10:52:08;13.00;99.90
9939;DHT22;5008;50.656;7.188;2024-02-14T10:54:36;12.90;99.90
9939;DHT22;5008;50.656;7.188;2024-02-14T10:57:06;13.00;99.90
9939;DHT22;5008;50.656;7.188;2024-02-14T10:59:41;13.00;99.90
9939;DHT22;5008;50.656;7.188;2024-02-14T11:02:10;13.10;99.90
9939;DHT22;5008;50.656;7.188;2024-02-14T11:04:37;13.10;99.90
9939;DHT22;5008;50.656;7.188;2024-02-14T11:07:09;13.20;99.90
9939;DHT22;5008;50.656;7.188;2024-02-14T11:09:36;13.20;99.90
9939;DHT22;5008;50.656;7.188;2024-02-14T11:12:04;13.20;99.90
9939;DHT22;5008;50.656;7.188;2024-02-14T11:14:34;13.20;99.90
9939;DHT22;5008;50.656;7.188;2024-02-14T11:17:09;13.30;99.90
9939;DHT22;5008;50.656;7.188;2024-02-14T11:19:36;13.20;99.90
9939;DHT22;5008;50.656;7.188;2024-02-14T11:22:12;13.20;99.90
9939;DHT22;5008;50.656;7.188;2024-02-14T11:24:39;13.20;99.90
9939;DHT22;5008;50.656;7.188;2024-02-14T11:27:10;13.20;99.90
9939;DHT22;5008;50.656;7.188;2024-02-14T11:29:39;13.20;99.90
9939;DHT22;5008;50.656;7.188;2024-02-14T11:32:09;13.30;99.90
9939;DHT22;5008;50.656;7.188;2024-02-14T11:34:37;13.40;99.90
9939;DHT22;5008;50.656;7.188;2024-02-14T11:37:04;13.40;99.90
9939;DHT22;5008;50.656;7.188;2024-02-14T11:39:33;13.30;99.90
9939;DHT22;5008;50.656;7.188;2024-02-14T11:42:00;13.40;99.90
9939;DHT22;5008;50.656;7.188;2024-02-14T11:44:27;13.50;99.90
9939;DHT22;5008;50.656;7.188;2024-02-14T11:46:54;13.50;99.90
9939;DHT22;5008;50.656;7.188;2024-02-14T11:49:23;13.50;99.90
9939;DHT22;5008;50.656;7.188;2024-02-14T11:51:50;13.40;99.90
9939;DHT22;5008;50.656;7.188;2024-02-14T11:54:18;13.40;99.90
9939;DHT22;5008;50.656;7.188;2024-02-14T11:56:46;13.50;99.90
9939;DHT22;5008;50.656;7.188;2024-02-14T11:59:13;13.40;99.90
9939;DHT22;5008;50.656;7.188;2024-02-14T12:01:41;13.50;99.90
9939;DHT22;5008;50.656;7.188;2024-02-14T12:04:09;13.60;99.90
9939;DHT22;5008;50.656;7.188;2024-02-14T12:06:39;13.60;99.90
9939;DHT22;5008;50.656;7.188;2024-02-14T12:09:08;13.70;99.90
9939;DHT22;5008;50.656;7.188;2024-02-14T12:11:35;13.80;99.90
9939;DHT22;5008;50.656;7.188;2024-02-14T12:14:04;13.80;99.90
9939;DHT22;5008;50.656;7.188;2024-02-14T12:16:31;13.80;99.90
9939;DHT22;5008;50.656;7.188;2024-02-14T12:19:04;13.70;99.90
9939;DHT22;5008;50.656;7.188;2024-02-14T12:21:34;13.70;99.90
9939;DHT22;5008;50.656;7.188;2024-02-14T12:24:03;13.50;99.90
9939;DHT22;5008;50.656;7.188;2024-02-14T12:26:30;13.50;99.90
9939;DHT22;5008;50.656;7.188;2024-02-14T12:28:57;13.50;99.90
9939;DHT22;5008;50.656;7.188;2024-02-14T12:31:24;13.60;99.90
9939;DHT22;5008;50.656;7.188;2024-02-14T12:33:53;13.50;99.90
9939;DHT22;5008;50.656;7.188;2024-02-14T12:36:21;13.60;99.90
9939;DHT22;5008;50.656;7.188;2024-02-14T12:38:47;13.60;99.90
9939;DHT22;5008;50.656;7.188;2024-02-14T12:41:16;13.60;99.90
9939;DHT22;5008;50.656;7.188;2024-02-14T12:43:42;13.60;99.90
9939;DHT22;5008;50.656;7.188;2024-02-14T12:46:09;13.60;99.90
9939;DHT22;5008;50.656;7.188;2024-02-14T12:48:36;13.60;99.90
9939;DHT22;5008;50.656;7.188;2024-02-14T12:51:03;13.60;99.90
9939;DHT22;5008;50.656;7.188;2024-02-14T12:53:30;13.50;99.90
9939;DHT22;5008;50.656;7.188;2024-02-14T12:55:57;13.50;99.90
9939;DHT22;5008;50.656;7.188;2024-02-14T12:58:25;13.50;99.90
9939;DHT22;5008;50.656;7.188;2024-02-14T13:00:52;13.50;99.90
9939;DHT22;5008;50.656;7.188;2024-02-14T13:03:19;13.40;99.90
9939;DHT22;5008;50.656;7.188;2024-02-14T13:05:45;13.40;99.90
9939;DHT22;5008;50.656;7.188;2024-02-14T13:08:13;13.40;99.90
9939;DHT22;5008;50.656;7.188;2024-02-14T13:10:43;13.30;99.90
9939;DHT22;5008;50.656;7.188;2024-02-14T13:13:10;13.20;99.90
9939;DHT22;5008;50.656;7.188;2024-02-14T13:15:38;13.10;99.90
9939;DHT22;5008;50.656;7.188;2024-02-14T13:18:06;13.20;99.90
9939;DHT22;5008;50.656;7.188;2024-02-14T13:20:33;13.10;99.90
9939;DHT22;5008;50.656;7.188;2024-02-14T13:23:00;13.10;99.90
9939;DHT22;5008;50.656;7.188;2024-02-14T13:25:27;13.10;99.90
9939;DHT22;5008;50.656;7.188;2024-02-14T13:27:54;13.00;99.90
9939;DHT22;5008;50.656;7.188;2024-02-14T13:30:21;13.00;99.90
9939;DHT22;5008;50.656;7.188;2024-02-14T13:32:49;13.00;99.90
9939;DHT22;5008;50.656;7.188;2024-02-14T13:35:16;13.00;99.90
9939;DHT22;5008;50.656;7.188;2024-02-14T13:37:43;13.00;99.90
9939;DHT22;5008;50.656;7.188;2024-02-14T13:40:10;12.90;99.90
9939;DHT22;5008;50.656;7.188;2024-02-14T13:42:37;12.90;99.90
9939;DHT22;5008;50.656;7.188;2024-02-14T13:45:05;12.80;99.90
9939;DHT22;5008;50.656;7.188;2024-02-14T13:47:35;12.80;99.90
9939;DHT22;5008;50.656;7.188;2024-02-14T13:50:05;12.70;99.90
9939;DHT22;5008;50.656;7.188;2024-02-14T13:52:32;12.70;99.90
9939;DHT22;5008;50.656;7.188;2024-02-14T13:54:58;12.70;99.90
9939;DHT22;5008;50.656;7.188;2024-02-14T13:57:27;12.60;99.90
9939;DHT22;5008;50.656;7.188;2024-02-14T13:59:54;12.50;99.90
9939;DHT22;5008;50.656;7.188;2024-02-14T14:02:21;12.40;99.90
9939;DHT22;5008;50.656;7.188;2024-02-14T14:04:49;12.40;99.90
9939;DHT22;5008;50.656;7.188;2024-02-14T14:07:19;12.30;99.90
9939;DHT22;5008;50.656;7.188;2024-02-14T14:09:47;12.20;99.90
9939;DHT22;5008;50.656;7.188;2024-02-14T14:12:14;12.30;99.90
9939;DHT22;5008;50.656;7.188;2024-02-14T14:14:41;12.30;99.90
9939;DHT22;5008;50.656;7.188;2024-02-14T14:17:07;12.30;99.90
9939;DHT22;5008;50.656;7.188;2024-02-14T14:19:34;12.40;99.90
9939;DHT22;5008;50.656;7.188;2024-02-14T14:22:02;12.30;99.90
9939;DHT22;5008;50.656;7.188;2024-02-14T14:24:30;12.30;99.90
9939;DHT22;5008;50.656;7.188;2024-02-14T14:26:57;12.30;99.90
9939;DHT22;5008;50.656;7.188;2024-02-14T14:29:25;12.30;99.90
9939;DHT22;5008;50.656;7.188;2024-02-14T14:31:51;12.30;99.90
9939;DHT22;5008;50.656;7.188;2024-02-14T14:34:18;12.30;99.90
9939;DHT22;5008;50.656;7.188;2024-02-14T14:36:45;12.30;99.90
9939;DHT22;5008;50.656;7.188;2024-02-14T14:39:11;12.20;99.90
9939;DHT22;5008;50.656;7.188;2024-02-14T14:41:39;12.20;99.90
9939;DHT22;5008;50.656;7.188;2024-02-14T14:44:07;12.20;99.90
9939;DHT22;5008;50.656;7.188;2024-02-14T14:46:34;12.20;99.90
9939;DHT22;5008;50.656;7.188;2024-02-14T14:49:01;12.10;99.90
9939;DHT22;5008;50.656;7.188;2024-02-14T14:51:28;12.10;99.90
9939;DHT22;5008;50.656;7.188;2024-02-14T14:53:55;12.00;99.90
9939;DHT22;5008;50.656;7.188;2024-02-14T14:56:22;12.00;99.90
9939;DHT22;5008;50.656;7.188;2024-02-14T14:58:52;12.00;99.90
9939;DHT22;5008;50.656;7.188;2024-02-14T15:01:19;11.90;99.90
9939;DHT22;5008;50.656;7.188;2024-02-14T15:03:46;11.90;99.90
9939;DHT22;5008;50.656;7.188;2024-02-14T15:06:12;11.90;99.90
9939;DHT22;5008;50.656;7.188;2024-02-14T15:08:40;11.90;99.90
9939;DHT22;5008;50.656;7.188;2024-02-14T15:11:09;11.90;99.90
9939;DHT22;5008;50.656;7.188;2024-02-14T15:13:35;11.80;99.90
9939;DHT22;5008;50.656;7.188;2024-02-14T15:16:04;11.80;99.90
9939;DHT22;5008;50.656;7.188;2024-02-14T15:18:33;11.80;99.90
9939;DHT22;5008;50.656;7.188;2024-02-14T15:21:00;11.80;99.90
9939;DHT22;5008;50.656;7.188;2024-02-14T15:23:27;11.80;99.90
9939;DHT22;5008;50.656;7.188;2024-02-14T15:25:54;11.80;99.90
9939;DHT22;5008;50.656;7.188;2024-02-14T15:28:28;11.70;99.90
9939;DHT22;5008;50.656;7.188;2024-02-14T15:30:55;11.80;99.90
9939;DHT22;5008;50.656;7.188;2024-02-14T15:33:41;11.70;99.90
9939;DHT22;5008;50.656;7.188;2024-02-14T15:36:08;11.70;99.90
9939;DHT22;5008;50.656;7.188;2024-02-14T15:38:35;11.70;99.90
9939;DHT22;5008;50.656;7.188;2024-02-14T15:41:02;11.80;99.90
9939;DHT22;5008;50.656;7.188;2024-02-14T15:43:31;11.90;99.90
9939;DHT22;5008;50.656;7.188;2024-02-14T15:46:00;11.80;99.90
9939;DHT22;5008;50.656;7.188;2024-02-14T15:48:26;11.70;99.90
9939;DHT22;5008;50.656;7.188;2024-02-14T15:50:55;11.80;99.90
9939;DHT22;5008;50.656;7.188;2024-02-14T15:53:23;11.80;99.90
9939;DHT22;5008;50.656;7.188;2024-02-14T15:55:52;11.70;99.90
9939;DHT22;5008;50.656;7.188;2024-02-14T15:58:19;11.70;99.90
9939;DHT22;5008;50.656;7.188;2024-02-14T16:00:45;11.70;99.90
9939;DHT22;5008;50.656;7.188;2024-02-14T16:03:12;11.60;99.90
9939;DHT22;5008;50.656;7.188;2024-02-14T16:05:39;11.70;99.90
9939;DHT22;5008;50.656;7.188;2024-02-14T16:08:14;11.70;99.90
9939;DHT22;5008;50.656;7.188;2024-02-14T16:10:42;11.70;99.90
9939;DHT22;5008;50.656;7.188;2024-02-14T16:13:09;11.60;99.90
9939;DHT22;5008;50.656;7.188;2024-02-14T16:15:36;11.60;99.90
9939;DHT22;5008;50.656;7.188;2024-02-14T16:18:04;11.60;99.90
9939;DHT22;5008;50.656;7.188;2024-02-14T16:20:31;11.60;99.90
9939;DHT22;5008;50.656;7.188;2024-02-14T16:22:58;11.50;99.90
9939;DHT22;5008;50.656;7.188;2024-02-14T16:25:26;11.50;99.90
9939;DHT22;5008;50.656;7.188;2024-02-14T16:27:55;11.50;99.90
9939;DHT22;5008;50.656;7.188;2024-02-14T16:30:23;11.50;99.90
9939;DHT22;5008;50.656;7.188;2024-02-14T16:32:49;11.50;99.90
9939;DHT22;5008;50.656;7.188;2024-02-14T16:35:16;11.40;99.90
9939;DHT22;5008;50.656;7.188;2024-02-14T16:37:43;11.40;99.90
9939;DHT22;5008;50.656;7.188;2024-02-14T16:40:11;11.40;99.90
9939;DHT22;5008;50.656;7.188;2024-02-14T16:42:39;11.50;99.90
9939;DHT22;5008;50.656;7.188;2024-02-14T16:45:07;11.50;99.90
9939;DHT22;5008;50.656;7.188;2024-02-14T16:47:34;11.40;99.90
9939;DHT22;5008;50.656;7.188;2024-02-14T16:50:00;11.60;99.90
9939;DHT22;5008;50.656;7.188;2024-02-14T16:52:28;11.60;99.90
9939;DHT22;5008;50.656;7.188;2024-02-14T16:54:55;11.60;99.90
9939;DHT22;5008;50.656;7.188;2024-02-14T16:57:22;11.50;99.90
9939;DHT22;5008;50.656;7.188;2024-02-14T16:59:51;11.50;99.90
9939;DHT22;5008;50.656;7.188;2024-02-14T17:02:17;11.40;99.90
9939;DHT22;5008;50.656;7.188;2024-02-14T17:04:44;11.40;99.90
9939;DHT22;5008;50.656;7.188;2024-02-14T17:07:12;11.30;99.90
9939;DHT22;5008;50.656;7.188;2024-02-14T17:09:40;11.30;99.90
9939;DHT22;5008;50.656;7.188;2024-02-14T17:12:08;11.30;99.90
9939;DHT22;5008;50.656;7.188;2024-02-14T17:14:34;11.30;99.90
9939;DHT22;5008;50.656;7.188;2024-02-14T17:17:04;11.30;99.90
9939;DHT22;5008;50.656;7.188;2024-02-14T17:19:32;11.30;99.90
9939;DHT22;5008;50.656;7.188;2024-02-14T17:21:59;11.30;99.90
9939;DHT22;5008;50.656;7.188;2024-02-14T17:24:26;11.30;99.90
9939;DHT22;5008;50.656;7.188;2024-02-14T17:26:53;11.30;99.90
9939;DHT22;5008;50.656;7.188;2024-02-14T17:29:20;11.30;99.90
9939;DHT22;5008;50.656;7.188;2024-02-14T17:31:46;11.30;99.90
9939;DHT22;5008;50.656;7.188;2024-02-14T17:34:15;11.30;99.90
9939;DHT22;5008;50.656;7.188;2024-02-14T17:36:42;11.20;99.90
9939;DHT22;5008;50.656;7.188;2024-02-14T17:39:09;11.20;99.90
9939;DHT22;5008;50.656;7.188;2024-02-14T17:41:36;11.20;99.90
9939;DHT22;5008;50.656;7.188;2024-02-14T17:44:03;11.20;99.90
9939;DHT22;5008;50.656;7.188;2024-02-14T17:46:31;11.20;99.90
9939;DHT22;5008;50.656;7.188;2024-02-14T17:48:58;11.20;99.90
9939;DHT22;5008;50.656;7.188;2024-02-14T17:51:26;11.20;99.90
9939;DHT22;5008;50.656;7.188;2024-02-14T17:53:53;11.30;99.90
9939;DHT22;5008;50.656;7.188;2024-02-14T17:56:20;11.40;99.90
9939;DHT22;5008;50.656;7.188;2024-02-14T17:58:47;11.40;99.90
9939;DHT22;5008;50.656;7.188;2024-02-14T18:01:14;11.40;99.90
9939;DHT22;5008;50.656;7.188;2024-02-14T18:03:40;11.40;99.90
9939;DHT22;5008;50.656;7.188;2024-02-14T18:06:07;11.50;99.90
9939;DHT22;5008;50.656;7.188;2024-02-14T18:08:36;11.40;99.90
9939;DHT22;5008;50.656;7.188;2024-02-14T18:11:03;11.50;99.90
9939;DHT22;5008;50.656;7.188;2024-02-14T18:13:29;11.40;99.90
9939;DHT22;5008;50.656;7.188;2024-02-14T18:15:56;11.40;99.90
9939;DHT22;5008;50.656;7.188;2024-02-14T18:18:23;11.30;99.90
9939;DHT22;5008;50.656;7.188;2024-02-14T18:20:50;11.30;99.90
9939;DHT22;5008;50.656;7.188;2024-02-14T18:23:17;11.30;99.90
9939;DHT22;5008;50.656;7.188;2024-02-14T18:25:45;11.30;99.90
9939;DHT22;5008;50.656;7.188;2024-02-14T18:28:12;11.30;99.90
9939;DHT22;5008;50.656;7.188;2024-02-14T18:30:39;11.30;99.90
9939;DHT22;5008;50.656;7.188;2024-02-14T18:33:06;11.30;99.90
9939;DHT22;5008;50.656;7.188;2024-02-14T18:35:37;11.40;99.90
9939;DHT22;5008;50.656;7.188;2024-02-14T18:38:04;11.30;99.90
9939;DHT22;5008;50.656;7.188;2024-02-14T18:40:34;11.30;99.90
9939;DHT22;5008;50.656;7.188;2024-02-14T18:43:02;11.40;99.90
9939;DHT22;5008;50.656;7.188;2024-02-14T18:45:29;11.30;99.90
9939;DHT22;5008;50.656;7.188;2024-02-14T18:47:56;11.40;99.90
9939;DHT22;5008;50.656;7.188;2024-02-14T18:50:23;11.40;99.90
9939;DHT22;5008;50.656;7.188;2024-02-14T18:52:51;11.40;99.90
9939;DHT22;5008;50.656;7.188;2024-02-14T18:55:19;11.40;99.90
9939;DHT22;5008;50.656;7.188;2024-02-14T18:57:46;11.40;99.90
9939;DHT22;5008;50.656;7.188;2024-02-14T19:00:15;11.50;99.90
9939;DHT22;5008;50.656;7.188;2024-02-14T19:02:43;11.50;99.90
9939;DHT22;5008;50.656;7.188;2024-02-14T19:05:09;11.60;99.90
9939;DHT22;5008;50.656;7.188;2024-02-14T19:07:37;11.60;99.90
9939;DHT22;5008;50.656;7.188;2024-02-14T19:10:05;11.60;99.90
9939;DHT22;5008;50.656;7.188;2024-02-14T19:12:32;11.50;99.90
9939;DHT22;5008;50.656;7.188;2024-02-14T19:14:59;11.50;99.90
9939;DHT22;5008;50.656;7.188;2024-02-14T19:17:30;11.50;99.90
9939;DHT22;5008;50.656;7.188;2024-02-14T19:19:57;11.40;99.90
9939;DHT22;5008;50.656;7.188;2024-02-14T19:22:24;11.40;99.90
9939;DHT22;5008;50.656;7.188;2024-02-14T19:24:52;11.40;99.90
9939;DHT22;5008;50.656;7.188;2024-02-14T19:27:19;11.40;99.90
9939;DHT22;5008;50.656;7.188;2024-02-14T19:29:46;11.40;99.90
9939;DHT22;5008;50.656;7.188;2024-02-14T19:32:13;11.30;99.90
9939;DHT22;5008;50.656;7.188;2024-02-14T19:34:41;11.40;99.90
9939;DHT22;5008;50.656;7.188;2024-02-14T19:37:08;11.40;99.90
9939;DHT22;5008;50.656;7.188;2024-02-14T19:39:35;11.40;99.90
9939;DHT22;5008;50.656;7.188;2024-02-14T19:42:03;11.30;99.90
9939;DHT22;5008;50.656;7.188;2024-02-14T19:44:30;11.40;99.90
9939;DHT22;5008;50.656;7.188;2024-02-14T19:46:56;11.30;99.90
9939;DHT22;5008;50.656;7.188;2024-02-14T19:49:23;11.30;99.90
9939;DHT22;5008;50.656;7.188;2024-02-14T19:51:53;11.30;99.90
9939;DHT22;5008;50.656;7.188;2024-02-14T19:54:21;11.40;99.90
9939;DHT22;5008;50.656;7.188;2024-02-14T19:56:48;11.30;99.90
9939;DHT22;5008;50.656;7.188;2024-02-14T19:59:15;11.30;99.90
9939;DHT22;5008;50.656;7.188;2024-02-14T20:01:41;11.30;99.90
9939;DHT22;5008;50.656;7.188;2024-02-14T20:04:09;11.30;99.90
9939;DHT22;5008;50.656;7.188;2024-02-14T20:06:37;11.30;99.90
9939;DHT22;5008;50.656;7.188;2024-02-14T20:09:06;11.20;99.90
9939;DHT22;5008;50.656;7.188;2024-02-14T20:11:33;11.30;99.90
9939;DHT22;5008;50.656;7.188;2024-02-14T20:14:00;11.20;99.90
9939;DHT22;5008;50.656;7.188;2024-02-14T20:16:27;11.30;99.90
9939;DHT22;5008;50.656;7.188;2024-02-14T20:18:55;11.30;99.90
9939;DHT22;5008;50.656;7.188;2024-02-14T20:21:22;11.30;99.90
9939;DHT22;5008;50.656;7.188;2024-02-14T20:23:50;11.30;99.90
9939;DHT22;5008;50.656;7.188;2024-02-14T20:26:19;11.20;99.90
9939;DHT22;5008;50.656;7.188;2024-02-14T20:28:46;11.30;99.90
9939;DHT22;5008;50.656;7.188;2024-02-14T20:31:13;11.20;99.90
9939;DHT22;5008;50.656;7.188;2024-02-14T20:33:40;11.20;99.90
9939;DHT22;5008;50.656;7.188;2024-02-14T20:36:07;11.30;99.90
9939;DHT22;5008;50.656;7.188;2024-02-14T20:38:34;11.30;99.90
9939;DHT22;5008;50.656;7.188;2024-02-14T20:41:00;11.30;99.90
9939;DHT22;5008;50.656;7.188;2024-02-14T20:43:29;11.20;99.90
9939;DHT22;5008;50.656;7.188;2024-02-14T20:45:56;11.20;99.90
9939;DHT22;5008;50.656;7.188;2024-02-14T20:48:22;11.20;99.90
9939;DHT22;5008;50.656;7.188;2024-02-14T20:50:50;11.20;99.90
9939;DHT22;5008;50.656;7.188;2024-02-14T20:53:16;11.20;99.90
9939;DHT22;5008;50.656;7.188;2024-02-14T20:55:43;11.30;99.90
9939;DHT22;5008;50.656;7.188;2024-02-14T20:58:11;11.20;99.90
9939;DHT22;5008;50.656;7.188;2024-02-14T21:00:39;11.20;99.90
9939;DHT22;5008;50.656;7.188;2024-02-14T21:03:06;11.20;99.90
9939;DHT22;5008;50.656;7.188;2024-02-14T21:05:34;11.20;99.90
9939;DHT22;5008;50.656;7.188;2024-02-14T21:08:00;11.30;99.90